Time;durP1;ratioP1;P1;durP2;ratioP2;P2;SDS_P1;SDS_P2;PMS_P1;PMS_P2;Temp;Humidity;BMP_temperature;BMP_pressure;BME280_temperature;BME280_humidity;BME280_pressure;Samples;Min_cycle;Max_cycle;Signal;HPM_P1;HPM_P2
2021/12/11 00:01:37;;;;;;;32.33;21.38;;;;;;;5.53;64.30;100588.06;5131128;28;21038;-43
2021/12/11 00:04:14;;;;;;;38.07;22.70;;;;;;;5.86;64.10;100641.34;5127071;28;20427;-43
2021/12/11 00:06:52;;;;;;;32.13;20.88;;;;;;;5.89;64.38;100641.09;5129029;28;20504;-42
2021/12/11 00:09:28;;;;;;;32.10;21.80;;;;;;;5.93;64.34;100652.19;5127702;28;20413;-44
2021/12/11 00:12:07;;;;;;;32.13;22.17;;;;;;;5.94;64.25;100657.28;5126225;28;20416;-45
2021/12/11 00:14:45;;;;;;;36.35;23.08;;;;;;;5.96;64.33;100658.00;5125835;28;20512;-46
2021/12/11 00:17:23;;;;;;;35.75;22.25;;;;;;;5.98;64.20;100658.72;5127570;28;20942;-42
2021/12/11 00:19:56;;;;;;;34.55;22.98;;;;;;;5.99;64.15;100652.53;5126285;28;20515;-45
2021/12/11 00:22:31;;;;;;;36.77;22.47;;;;;;;6.02;64.22;100661.09;5128233;28;20572;-43
2021/12/11 00:25:09;;;;;;;34.28;22.23;;;;;;;6.01;64.13;100665.53;5126321;28;20443;-43
2021/12/11 00:27:48;;;;;;;30.63;23.05;;;;;;;6.05;64.15;100671.34;5125570;28;20427;-44
2021/12/11 00:30:29;;;;;;;36.53;24.45;;;;;;;6.03;64.30;100673.25;5126022;28;20447;-44
2021/12/11 00:33:04;;;;;;;36.85;24.42;;;;;;;6.06;64.25;100683.47;5125051;28;20434;-41
2021/12/11 00:35:38;;;;;;;35.58;23.83;;;;;;;6.05;64.19;100684.44;5125234;28;20420;-47
2021/12/11 00:38:15;;;;;;;34.97;24.30;;;;;;;6.08;64.09;100694.69;5126133;28;21014;-43
2021/12/11 00:40:51;;;;;;;39.30;24.98;;;;;;;6.05;63.99;100692.31;5126349;28;20902;-42
2021/12/11 00:43:30;;;;;;;36.90;23.70;;;;;;;6.13;64.07;100695.13;5126061;28;20435;-43
2021/12/11 00:46:07;;;;;;;36.47;24.80;;;;;;;6.14;64.10;100696.81;5124802;28;20416;-46
2021/12/11 00:48:40;;;;;;;39.67;24.67;;;;;;;6.18;64.30;100714.78;5119747;28;20434;-44
2021/12/11 00:51:16;;;;;;;39.53;24.75;;;;;;;6.19;64.17;100716.47;5126570;28;20512;-44
2021/12/11 00:53:53;;;;;;;40.70;23.17;;;;;;;6.22;64.17;100724.09;5128152;28;20487;-43
2021/12/11 00:56:31;;;;;;;37.20;23.95;;;;;;;6.24;64.16;100726.56;5126235;28;20506;-46
2021/12/11 00:59:10;;;;;;;35.10;22.67;;;;;;;6.25;64.07;100725.59;5123657;28;20430;-44
2021/12/11 01:01:49;;;;;;;33.97;22.63;;;;;;;6.28;64.14;100724.53;5125786;28;20896;-43
2021/12/11 01:04:26;;;;;;;39.08;23.48;;;;;;;6.27;64.20;100723.69;5125313;28;20947;-47
2021/12/11 01:07:02;;;;;;;35.75;24.25;;;;;;;6.27;64.20;100739.44;5126228;28;20486;-43
2021/12/11 01:09:39;;;;;;;30.77;21.85;;;;;;;6.28;64.20;100740.25;5126234;28;20416;-44
2021/12/11 01:12:17;;;;;;;34.60;22.92;;;;;;;6.27;64.23;100749.09;5125680;28;20893;-45
2021/12/11 01:14:56;;;;;;;39.10;24.23;;;;;;;6.20;64.43;100738.28;5128394;28;20419;-42
2021/12/11 01:17:42;;;;;;;37.55;24.27;;;;;;;6.28;64.37;100761.25;5126419;28;20420;-43
2021/12/11 01:20:21;;;;;;;36.30;22.77;;;;;;;6.28;64.32;100759.44;5122734;28;20431;-48
2021/12/11 01:22:54;;;;;;;36.67;24.55;;;;;;;6.28;64.35;100767.31;5126296;28;20404;-42
2021/12/11 01:25:29;;;;;;;34.45;23.20;;;;;;;6.27;64.41;100765.66;5126254;28;20430;-45
2021/12/11 01:28:04;;;;;;;35.00;23.70;;;;;;;6.30;64.45;100773.28;5124057;28;20780;-42
2021/12/11 01:30:44;;;;;;;37.97;24.77;;;;;;;6.27;64.34;100778.78;5125236;28;20510;-42
2021/12/11 01:33:17;;;;;;;40.25;23.67;;;;;;;6.29;64.69;100789.97;5123660;28;20924;-46
2021/12/11 01:35:51;;;;;;;42.38;24.90;;;;;;;6.31;64.35;100792.47;5125393;28;20916;-44
2021/12/11 01:38:27;;;;;;;38.65;23.92;;;;;;;6.27;64.34;100786.63;5125285;28;20511;-43
2021/12/11 01:41:05;;;;;;;33.75;23.02;;;;;;;6.34;64.39;100803.53;5123994;28;20439;-44
2021/12/11 01:43:41;;;;;;;39.97;24.95;;;;;;;6.34;64.49;100800.09;5120795;28;20709;-43
2021/12/11 01:46:15;;;;;;;40.83;26.20;;;;;;;6.33;64.39;100796.63;5126399;28;20420;-45
2021/12/11 01:49:00;;;;;;;39.40;23.92;;;;;;;6.37;64.36;100810.34;5125201;28;20428;-43
2021/12/11 01:51:39;;;;;;;48.42;25.45;;;;;;;6.38;64.43;100812.00;5121184;28;20884;-45
2021/12/11 01:54:21;;;;;;;39.65;27.00;;;;;;;6.37;64.39;100811.16;5128702;28;20432;-43
2021/12/11 01:57:00;;;;;;;38.25;24.75;;;;;;;6.40;64.20;100823.22;5128290;28;20833;-43
2021/12/11 01:59:36;;;;;;;41.28;25.90;;;;;;;6.41;64.30;100833.59;5126269;28;20428;-47
2021/12/11 02:02:15;;;;;;;38.63;25.23;;;;;;;6.43;64.39;100834.28;5130023;28;20420;-42
2021/12/11 02:04:53;;;;;;;44.70;27.75;;;;;;;6.46;64.27;100843.69;5129471;28;20429;-47
2021/12/11 02:07:32;;;;;;;41.30;26.10;;;;;;;6.36;64.33;100833.13;5130011;28;20506;-43
2021/12/11 02:10:10;;;;;;;38.30;25.77;;;;;;;6.47;64.29;100848.84;5124738;28;20424;-43
2021/12/11 02:12:44;;;;;;;42.40;26.75;;;;;;;6.47;64.45;100846.22;5127032;28;20427;-43
2021/12/11 02:15:24;;;;;;;40.95;25.15;;;;;;;6.47;64.33;100855.84;5127056;28;20424;-43
2021/12/11 02:18:06;;;;;;;42.75;25.95;;;;;;;6.47;64.44;100861.97;5127854;28;20408;-44
2021/12/11 02:20:43;;;;;;;47.08;25.55;;;;;;;6.49;64.40;100853.13;5126119;28;20482;-44
2021/12/11 02:23:17;;;;;;;43.50;23.90;;;;;;;6.49;64.53;100858.38;5126973;28;20422;-44
2021/12/11 02:25:53;;;;;;;45.40;25.20;;;;;;;6.50;64.48;100860.84;5127837;28;20436;-42
2021/12/11 02:28:33;;;;;;;40.65;24.92;;;;;;;6.52;64.44;100863.38;5128514;28;20772;-47
2021/12/11 02:31:09;;;;;;;40.28;24.33;;;;;;;6.51;64.50;100870.41;5124379;28;20400;-43
2021/12/11 02:33:47;;;;;;;44.53;25.80;;;;;;;6.52;64.45;100879.13;5128363;28;20420;-43
2021/12/11 02:36:25;;;;;;;37.72;25.77;;;;;;;6.51;64.55;100882.69;5124247;28;20892;-42
2021/12/11 02:39:09;;;;;;;43.88;26.98;;;;;;;6.46;64.47;100891.75;5126821;28;20922;-42
2021/12/11 02:41:52;;;;;;;40.80;27.42;;;;;;;6.45;64.50;100884.03;5125517;28;20979;-42
2021/12/11 02:44:33;;;;;;;37.47;26.35;;;;;;;6.45;64.67;100889.28;5126065;28;20419;-44
2021/12/11 02:47:12;;;;;;;40.88;26.48;;;;;;;6.44;64.78;100891.06;5125526;28;22375;-43
2021/12/11 02:49:49;;;;;;;41.63;26.73;;;;;;;6.47;64.63;100887.34;5129401;28;20432;-43
2021/12/11 02:52:27;;;;;;;39.30;23.77;;;;;;;6.45;64.59;100887.47;5127810;28;20424;-43
2021/12/11 02:55:07;;;;;;;44.97;25.30;;;;;;;6.42;64.74;100887.72;5130106;28;20423;-43
2021/12/11 02:57:46;;;;;;;41.78;26.00;;;;;;;6.38;64.59;100894.19;5124604;28;20755;-43
2021/12/11 03:00:23;;;;;;;40.00;25.48;;;;;;;6.38;64.76;100899.41;5129262;28;20433;-46
2021/12/11 03:03:03;;;;;;;40.17;24.92;;;;;;;6.39;64.78;100900.25;5128666;28;20432;-44
2021/12/11 03:05:43;;;;;;;42.42;24.05;;;;;;;6.39;64.78;100900.25;5124902;28;21968;-42
2021/12/11 03:08:21;;;;;;;40.30;27.02;;;;;;;6.40;64.80;100907.97;5132144;28;20425;-45
2021/12/11 03:11:00;;;;;;;41.17;26.13;;;;;;;6.43;64.69;100906.91;5128247;28;20408;-43
2021/12/11 03:13:34;;;;;;;51.05;29.05;;;;;;;6.39;64.75;100885.34;5126693;28;20770;-44
2021/12/11 03:16:08;;;;;;;43.20;26.83;;;;;;;6.37;64.72;100884.63;5128900;28;20526;-43
2021/12/11 03:18:40;;;;;;;47.72;27.42;;;;;;;6.37;64.90;100889.84;5127510;28;20539;-44
2021/12/11 03:21:13;;;;;;;47.72;29.23;;;;;;;6.38;64.84;100882.81;5128471;28;20444;-43
2021/12/11 03:23:45;;;;;;;47.90;28.98;;;;;;;6.37;64.87;100887.25;5128471;28;20424;-43
2021/12/11 03:26:19;;;;;;;52.33;29.13;;;;;;;6.33;65.01;100891.06;5128159;28;20412;-44
2021/12/11 03:28:52;;;;;;;58.60;27.45;;;;;;;6.32;64.95;100893.78;5127421;28;20423;-42
2021/12/11 03:31:24;;;;;;;52.78;28.58;;;;;;;6.30;65.01;100896.56;5127736;28;20404;-42
2021/12/11 03:33:59;;;;;;;58.97;28.80;;;;;;;6.27;65.08;100901.22;5127126;28;20450;-42
2021/12/11 03:36:33;;;;;;;55.58;26.15;;;;;;;6.27;65.16;100902.03;5125445;28;20884;-40
2021/12/11 03:39:10;;;;;;;55.03;26.65;;;;;;;6.27;65.10;100902.03;5134070;28;20428;-48
2021/12/11 03:41:47;;;;;;;59.72;29.55;;;;;;;6.27;65.10;100891.56;5123983;28;20422;-42
2021/12/11 03:44:20;;;;;;;56.53;28.70;;;;;;;6.21;65.06;100892.03;5129284;28;20435;-41
2021/12/11 03:46:55;;;;;;;66.68;29.92;;;;;;;6.24;65.20;100892.63;5125585;28;20405;-43
2021/12/11 03:49:27;;;;;;;54.85;28.90;;;;;;;6.26;65.11;100894.31;5124444;28;20416;-49
2021/12/11 03:52:01;;;;;;;57.20;28.15;;;;;;;6.24;65.23;100891.78;5128081;28;20408;-44
2021/12/11 03:54:38;;;;;;;56.10;27.63;;;;;;;6.24;65.10;100890.00;5126462;28;20535;-43
2021/12/11 03:57:16;;;;;;;53.92;28.27;;;;;;;6.22;65.22;100891.06;5128323;28;20439;-43
2021/12/11 03:59:50;;;;;;;58.83;29.03;;;;;;;6.26;65.26;100892.50;5126749;28;20464;-46
2021/12/11 04:02:27;;;;;;;55.05;29.27;;;;;;;6.29;65.25;100894.03;5128831;28;20507;-42
2021/12/11 04:05:03;;;;;;;55.67;29.17;;;;;;;6.19;65.29;100872.94;5125582;28;20424;-44
2021/12/11 04:07:40;;;;;;;55.72;28.75;;;;;;;6.28;65.36;100887.97;5124889;28;20417;-41
2021/12/11 04:10:16;;;;;;;53.65;29.77;;;;;;;6.28;65.23;100898.44;5125267;28;20429;-42
2021/12/11 04:12:50;;;;;;;51.75;29.20;;;;;;;6.29;65.50;100897.53;5122278;28;20511;-42
2021/12/11 04:15:23;;;;;;;61.40;29.67;;;;;;;6.28;65.36;100893.22;5126960;28;20452;-42
2021/12/11 04:17:56;;;;;;;60.07;32.07;;;;;;;6.28;65.63;100887.97;5126118;28;20435;-42
2021/12/11 04:20:31;;;;;;;60.13;31.35;;;;;;;6.32;65.46;100893.78;5128049;28;20418;-42
2021/12/11 04:23:04;;;;;;;57.47;28.85;;;;;;;6.32;65.44;100889.41;5127580;28;20511;-46
2021/12/11 04:25:36;;;;;;;56.05;29.50;;;;;;;6.30;65.43;100891.31;5125215;28;20424;-43
2021/12/11 04:28:12;;;;;;;53.92;28.65;;;;;;;6.28;65.49;100887.97;5125254;28;20500;-42
2021/12/11 04:30:49;;;;;;;50.58;27.73;;;;;;;6.14;65.48;100885.59;5126662;28;20768;-43
2021/12/11 04:33:22;;;;;;;52.13;30.40;;;;;;;6.23;65.87;100895.38;5124195;28;21390;-44
2021/12/11 04:35:54;;;;;;;54.47;28.33;;;;;;;6.24;65.68;100897.03;5127787;28;20412;-42
2021/12/11 04:38:27;;;;;;;55.28;29.30;;;;;;;6.30;65.70;100898.34;5125021;28;20428;-43
2021/12/11 04:41:00;;;;;;;65.40;29.30;;;;;;;6.33;65.72;100888.44;5126915;28;20595;-41
2021/12/11 04:43:35;;;;;;;59.58;28.92;;;;;;;6.33;65.71;100891.06;5121746;28;20416;-45
2021/12/11 04:46:38;;;;;;;49.33;28.23;;;;;;;6.35;65.76;100888.31;5126668;28;20849;-44
2021/12/11 04:49:16;;;;;;;57.80;27.25;;;;;;;6.38;65.85;100886.31;5118835;28;20776;-42
2021/12/11 04:51:59;;;;;;;51.10;26.97;;;;;;;6.37;65.83;100882.00;5128097;28;20916;-42
2021/12/11 04:54:46;;;;;;;56.80;28.95;;;;;;;6.37;65.89;100881.16;5125878;28;20825;-43
2021/12/11 05:00:27;;;;;;;53.03;28.42;;;;;;;6.47;65.85;100892.59;5110556;28;20428;-44
2021/12/11 05:03:26;;;;;;;60.40;28.55;;;;;;;6.53;65.90;100899.13;5128762;28;20444;-43
2021/12/11 05:06:20;;;;;;;64.90;29.23;;;;;;;6.58;65.71;100907.50;5122703;28;20571;-42
2021/12/11 05:09:16;;;;;;;58.42;29.85;;;;;;;6.56;65.84;100909.41;5121384;28;20398;-42
2021/12/11 05:11:56;;;;;;;62.30;32.58;;;;;;;6.45;65.79;100900.59;5124107;28;20838;-42
2021/12/11 05:14:28;;;;;;;68.22;31.88;;;;;;;6.52;65.98;100916.69;5126203;28;20498;-42
2021/12/11 05:17:02;;;;;;;63.70;33.22;;;;;;;6.46;65.87;100911.91;5124692;28;20435;-42
2021/12/11 05:19:36;;;;;;;72.68;33.20;;;;;;;6.49;65.99;100923.97;5121039;28;20868;-42
2021/12/11 05:22:10;;;;;;;67.35;34.08;;;;;;;6.46;65.88;100928.50;5125689;28;20935;-42
2021/12/11 05:24:46;;;;;;;64.22;32.92;;;;;;;6.44;65.77;100934.81;5122706;28;20433;-43
2021/12/11 05:27:19;;;;;;;62.22;32.92;;;;;;;6.39;65.98;100956.16;5129184;28;20440;-41
2021/12/11 05:29:52;;;;;;;63.00;31.30;;;;;;;6.27;66.14;100965.00;5126205;28;20435;-41
2021/12/11 05:32:27;;;;;;;62.47;31.73;;;;;;;6.15;66.26;100971.19;5123907;28;20418;-47
2021/12/11 05:35:00;;;;;;;69.53;32.13;;;;;;;6.02;66.44;100975.69;5124710;28;20419;-42
2021/12/11 05:37:32;;;;;;;61.38;32.08;;;;;;;5.90;66.42;100991.38;5121909;28;20416;-42
2021/12/11 05:40:08;;;;;;;76.72;33.88;;;;;;;5.80;66.55;100990.41;5123788;28;20760;-42
2021/12/11 05:42:41;;;;;;;71.93;34.30;;;;;;;5.64;66.66;100998.56;5126463;28;20420;-42
2021/12/11 05:45:13;;;;;;;63.08;32.20;;;;;;;5.65;66.73;101031.66;5127131;28;20508;-44
2021/12/11 05:47:47;;;;;;;65.50;34.40;;;;;;;5.68;66.71;101046.34;5126453;28;20420;-41
2021/12/11 05:50:26;;;;;;;64.28;35.13;;;;;;;5.64;66.59;101031.81;5127132;28;20778;-42
2021/12/11 05:52:59;;;;;;;58.95;32.45;;;;;;;5.67;66.72;101057.78;5101211;28;20449;-41
2021/12/11 05:55:32;;;;;;;63.10;34.08;;;;;;;5.62;66.84;101058.09;5125824;28;20412;-43
2021/12/11 05:58:10;;;;;;;66.47;33.88;;;;;;;5.65;66.82;101064.91;5121087;28;20735;-41
2021/12/11 06:00:49;;;;;;;64.07;32.78;;;;;;;5.60;66.79;101067.84;5124714;28;20450;-41
2021/12/11 06:03:23;;;;;;;57.70;34.38;;;;;;;5.62;66.76;101083.47;5126982;28;20502;-44
2021/12/11 06:05:58;;;;;;;68.32;33.70;;;;;;;5.60;66.82;101082.72;5123603;28;20471;-42
2021/12/11 06:08:31;;;;;;;69.30;33.80;;;;;;;5.58;66.70;101092.50;5125905;28;20451;-42
2021/12/11 06:11:05;;;;;;;70.07;33.30;;;;;;;5.57;66.77;101109.16;5123128;28;20431;-44
2021/12/11 06:13:38;;;;;;;71.72;36.45;;;;;;;5.52;67.18;101093.78;5125952;28;20431;-43
2021/12/11 06:16:10;;;;;;;66.63;35.87;;;;;;;5.40;67.10;101089.44;5123338;28;20888;-42
2021/12/11 06:18:46;;;;;;;76.72;36.63;;;;;;;5.42;66.81;101104.09;5124264;28;20420;-42
2021/12/11 06:21:18;;;;;;;79.93;37.45;;;;;;;5.43;67.03;101142.44;5127975;28;20444;-42
2021/12/11 06:23:51;;;;;;;68.72;34.88;;;;;;;5.50;66.85;101148.91;5125903;28;20442;-44
2021/12/11 06:26:23;;;;;;;78.40;38.35;;;;;;;5.54;66.71;101152.13;5125085;28;20816;-43
2021/12/11 06:28:56;;;;;;;83.40;39.70;;;;;;;5.57;66.73;101175.47;5123124;28;20785;-43
2021/12/11 06:31:28;;;;;;;83.20;39.15;;;;;;;5.55;66.93;101180.84;5127371;28;20883;-42
2021/12/11 06:34:02;;;;;;;84.88;38.20;;;;;;;5.63;66.73;101192.56;5122830;28;20451;-45
2021/12/11 06:36:35;;;;;;;84.05;39.05;;;;;;;5.66;66.67;101190.56;5122421;28;20427;-43
2021/12/11 06:39:13;;;;;;;79.65;37.83;;;;;;;5.69;66.83;101200.81;5126353;28;20940;-42
2021/12/11 06:41:50;;;;;;;76.50;38.97;;;;;;;5.73;66.75;101212.78;5124359;28;20424;-45
2021/12/11 06:44:27;;;;;;;77.10;36.00;;;;;;;5.74;66.66;101209.19;5128695;28;25338;-41
2021/12/11 06:47:03;;;;;;;73.93;35.50;;;;;;;5.78;66.69;101217.69;5129121;28;20495;-42
2021/12/11 06:49:40;;;;;;;73.40;34.37;;;;;;;5.80;66.81;101218.41;5124966;28;20784;-42
2021/12/11 06:52:16;;;;;;;68.53;34.72;;;;;;;5.78;66.64;101215.06;5128019;28;20424;-42
2021/12/11 06:54:50;;;;;;;72.22;35.05;;;;;;;5.77;67.05;101229.94;5126957;28;20428;-42
2021/12/11 06:57:24;;;;;;;71.80;35.17;;;;;;;5.80;66.65;101242.00;5127114;28;21243;-42
2021/12/11 06:59:56;;;;;;;75.05;33.92;;;;;;;5.81;66.71;101238.44;5128665;28;20412;-42
2021/12/11 07:02:29;;;;;;;75.47;35.10;;;;;;;5.85;66.56;101252.97;5127661;28;20422;-42
2021/12/11 07:05:03;;;;;;;78.43;34.28;;;;;;;5.86;66.55;101244.19;5127571;28;20433;-41
2021/12/11 07:07:37;;;;;;;76.93;35.15;;;;;;;5.81;66.54;101238.44;5125322;28;20412;-42
2021/12/11 07:10:15;;;;;;;66.00;32.60;;;;;;;5.88;66.40;101252.75;5126121;28;20511;-43
2021/12/11 07:12:49;;;;;;;77.95;32.00;;;;;;;5.88;66.51;101267.66;5126215;28;20515;-42
2021/12/11 07:15:21;;;;;;;65.97;31.20;;;;;;;5.88;66.27;101268.50;5127584;28;20782;-43
2021/12/11 07:17:54;;;;;;;67.47;33.00;;;;;;;5.87;66.24;101266.81;5127966;28;20439;-44
2021/12/11 07:20:27;;;;;;;76.35;32.13;;;;;;;5.79;66.21;101263.91;5127493;28;20412;-43
2021/12/11 07:23:00;;;;;;;75.70;33.97;;;;;;;5.83;66.30;101281.09;5128830;28;20743;-43
2021/12/11 07:25:39;;;;;;;77.55;33.25;;;;;;;5.81;66.31;101284.78;5123435;28;20420;-41
2021/12/11 07:28:12;;;;;;;80.57;33.60;;;;;;;5.79;66.26;101300.59;5128652;28;20515;-42
2021/12/11 07:30:47;;;;;;;75.93;34.50;;;;;;;5.78;66.31;101301.53;5128822;28;20442;-41
2021/12/11 07:33:20;;;;;;;76.32;35.35;;;;;;;5.63;66.24;101279.03;5126208;28;20446;-46
2021/12/11 07:35:54;;;;;;;81.20;33.13;;;;;;;5.74;66.35;101318.44;5128783;28;23311;-43
2021/12/11 07:38:27;;;;;;;76.90;33.85;;;;;;;5.71;66.30;101316.03;5125619;28;20432;-42
2021/12/11 07:41:05;;;;;;;77.28;36.33;;;;;;;5.68;66.28;101318.88;5128207;28;20561;-42
2021/12/11 07:43:38;;;;;;;97.00;38.20;;;;;;;5.64;66.33;101322.66;5125572;28;20909;-43
2021/12/11 07:46:15;;;;;;;97.72;39.85;;;;;;;5.62;66.37;101329.78;5128550;28;20448;-44
2021/12/11 07:48:48;;;;;;;98.97;39.00;;;;;;;5.61;66.29;101341.22;5130850;28;20468;-41
2021/12/11 07:51:25;;;;;;;90.60;38.85;;;;;;;5.58;66.48;101339.63;5130364;28;20412;-41
2021/12/11 07:53:57;;;;;;;82.55;36.70;;;;;;;5.55;66.48;101348.53;5131357;28;20418;-41
2021/12/11 07:56:30;;;;;;;78.88;37.40;;;;;;;5.52;66.34;101353.97;5143179;28;20494;-45
2021/12/11 07:59:06;;;;;;;85.32;38.33;;;;;;;5.50;66.29;101363.72;5130634;28;20420;-40
2021/12/11 08:01:42;;;;;;;93.07;39.97;;;;;;;5.48;66.50;101370.84;5129226;28;20888;-43
2021/12/11 08:04:15;;;;;;;94.53;41.35;;;;;;;5.46;66.38;101370.13;5130056;28;20511;-44
2021/12/11 08:06:50;;;;;;;98.50;40.10;;;;;;;5.45;66.48;101375.44;5129445;28;20416;-42
2021/12/11 08:09:27;;;;;;;91.00;40.47;;;;;;;5.45;66.57;101380.69;5130748;28;28827;-43
2021/12/11 08:11:59;;;;;;;91.38;41.15;;;;;;;5.44;66.55;101379.84;5131125;28;20430;-43
2021/12/11 08:14:32;;;;;;;100.25;41.35;;;;;;;5.44;66.37;101390.31;5131340;28;20440;-42
2021/12/11 08:17:06;;;;;;;86.78;38.58;;;;;;;5.44;66.37;101395.56;5125460;28;20849;-41
2021/12/11 08:19:38;;;;;;;90.85;37.45;;;;;;;5.42;66.44;101396.59;5129440;28;20428;-41
2021/12/11 08:22:13;;;;;;;81.15;38.97;;;;;;;5.40;66.65;101394.09;5131405;28;20430;-42
2021/12/11 08:24:46;;;;;;;96.32;40.17;;;;;;;5.37;66.59;101404.78;5129320;28;20533;-41
2021/12/11 08:27:22;;;;;;;88.97;39.35;;;;;;;5.34;66.56;101415.47;5132500;28;20519;-42
2021/12/11 08:29:55;;;;;;;87.22;39.20;;;;;;;5.29;66.60;101417.53;5134772;28;20418;-45
2021/12/11 08:32:28;;;;;;;91.20;40.90;;;;;;;5.28;66.66;101424.56;5129971;28;20513;-43
2021/12/11 08:35:00;;;;;;;94.07;40.92;;;;;;;5.29;66.61;101428.00;5128297;28;20432;-41
2021/12/11 08:37:34;;;;;;;117.63;45.17;;;;;;;5.28;66.65;101427.19;5130423;28;20428;-42
2021/12/11 08:40:11;;;;;;;129.68;47.22;;;;;;;5.30;66.49;101424.47;5124624;28;20507;-46
2021/12/11 08:42:44;;;;;;;103.20;44.00;;;;;;;5.28;66.66;101426.34;5120385;28;20877;-49
2021/12/11 08:45:23;;;;;;;109.88;46.45;;;;;;;5.34;66.61;101439.03;5125234;28;20444;-43
2021/12/11 08:48:00;;;;;;;102.40;45.80;;;;;;;5.38;66.47;101442.28;5127021;28;20436;-47
2021/12/11 08:50:34;;;;;;;106.57;44.97;;;;;;;5.43;66.60;101448.06;5125397;28;24600;-49
2021/12/11 08:53:08;;;;;;;110.22;47.05;;;;;;;5.49;66.51;101455.53;5127562;28;20423;-44
2021/12/11 08:55:46;;;;;;;155.38;57.55;;;;;;;5.58;66.65;101449.66;5126913;28;20424;-41
2021/12/11 08:58:20;;;;;;;154.48;58.85;;;;;;;5.71;66.74;101466.25;5122835;28;20434;-42
2021/12/11 09:00:58;;;;;;;148.70;56.10;;;;;;;5.86;66.57;101464.38;5127060;28;20432;-42
2021/12/11 09:03:36;;;;;;;118.30;49.30;;;;;;;5.97;66.58;101469.75;5128829;28;20981;-43
2021/12/11 09:06:15;;;;;;;99.95;48.70;;;;;;;6.15;66.61;101474.69;5127451;28;20415;-45
2021/12/11 09:08:59;;;;;;;87.30;43.00;;;;;;;6.33;66.66;101483.06;5127726;28;20862;-42
2021/12/11 09:11:36;;;;;;;89.40;44.40;;;;;;;6.50;66.54;101481.88;5126845;28;21163;-42
2021/12/11 09:14:12;;;;;;;84.93;44.97;;;;;;;6.72;66.56;101482.06;5122688;28;20883;-44
2021/12/11 09:16:48;;;;;;;82.05;42.58;;;;;;;6.89;66.56;101486.94;5123810;28;20502;-42
2021/12/11 09:19:28;;;;;;;78.32;43.00;;;;;;;7.02;66.51;101493.94;5124599;28;20450;-45
2021/12/11 09:22:07;;;;;;;68.07;37.63;;;;;;;7.12;66.40;101508.94;5129651;28;20412;-45
2021/12/11 09:24:48;;;;;;;57.72;36.00;;;;;;;7.22;66.33;101497.75;5126588;28;20416;-47
2021/12/11 09:27:26;;;;;;;53.40;33.38;;;;;;;7.25;66.35;101493.13;5126394;28;20442;-43
2021/12/11 09:30:03;;;;;;;59.10;35.33;;;;;;;7.31;66.37;101495.28;5128195;28;20521;-41
2021/12/11 09:32:41;;;;;;;63.72;36.28;;;;;;;7.36;66.35;101497.56;5130118;28;20415;-44
2021/12/11 09:35:21;;;;;;;58.22;32.13;;;;;;;7.42;66.40;101504.16;5129123;28;20431;-42
2021/12/11 09:37:59;;;;;;;51.38;31.05;;;;;;;7.50;66.44;101518.44;5130966;28;20481;-43
2021/12/11 09:40:55;;;;;;;54.30;30.50;;;;;;;7.60;66.29;101518.59;5127065;28;20424;-43
2021/12/11 09:43:44;;;;;;;51.33;29.95;;;;;;;7.69;66.39;101525.78;5093804;28;20456;-43
2021/12/11 09:46:21;;;;;;;50.10;28.90;;;;;;;7.75;66.41;101513.97;5123457;28;20447;-43
2021/12/11 09:48:57;;;;;;;48.72;28.63;;;;;;;7.79;66.42;101529.41;5126725;28;20428;-42
2021/12/11 09:51:36;;;;;;;46.47;27.02;;;;;;;7.81;66.29;101527.50;5127431;28;20430;-45
2021/12/11 09:54:13;;;;;;;45.47;25.58;;;;;;;7.74;66.40;101526.28;5127892;28;20412;-44
2021/12/11 09:56:50;;;;;;;44.85;25.48;;;;;;;7.78;66.31;101537.41;5134709;28;20498;-41
2021/12/11 09:59:26;;;;;;;46.75;28.90;;;;;;;7.75;66.32;101538.47;5126473;28;20507;-44
2021/12/11 10:02:04;;;;;;;52.90;28.73;;;;;;;7.76;66.50;101542.78;5130017;28;20430;-43
2021/12/11 10:04:43;;;;;;;51.83;30.20;;;;;;;7.45;66.54;101486.38;5121832;28;20420;-43
2021/12/11 10:07:31;;;;;;;50.58;30.30;;;;;;;7.78;66.52;101548.78;5125556;28;20420;-43
2021/12/11 10:10:23;;;;;;;54.35;30.50;;;;;;;7.82;66.62;101554.63;5121867;28;20401;-47
2021/12/11 10:12:59;;;;;;;51.47;30.30;;;;;;;7.83;66.62;101557.16;5125159;28;20430;-43
2021/12/11 10:15:38;;;;;;;50.75;30.75;;;;;;;7.89;66.77;101560.28;5128305;28;20774;-41
2021/12/11 10:18:15;;;;;;;51.50;33.15;;;;;;;7.91;66.61;101568.91;5130400;28;20486;-42
2021/12/11 10:20:53;;;;;;;56.00;33.85;;;;;;;7.97;66.66;101573.69;5133283;28;20495;-46
2021/12/11 10:23:31;;;;;;;48.70;32.97;;;;;;;8.00;66.77;101573.47;5131218;28;20432;-43
2021/12/11 10:26:10;;;;;;;54.67;34.70;;;;;;;8.00;66.83;101584.00;5126721;28;20426;-43
2021/12/11 10:29:07;;;;;;;48.83;32.47;;;;;;;8.00;66.81;101589.25;5141133;28;20416;-43
2021/12/11 10:31:45;;;;;;;48.70;32.13;;;;;;;8.02;66.79;101589.97;5128189;28;20416;-42
2021/12/11 10:34:21;;;;;;;53.13;33.37;;;;;;;8.13;66.66;101594.44;5130955;28;20426;-44
2021/12/11 10:37:00;;;;;;;48.42;29.85;;;;;;;8.31;66.87;101593.03;5131010;28;20425;-41
2021/12/11 10:39:32;;;;;;;43.35;28.48;;;;;;;8.47;66.85;101582.22;5130497;28;20498;-44
2021/12/11 10:42:06;;;;;;;42.88;26.80;;;;;;;8.57;66.99;101588.44;5123443;28;20422;-44
2021/12/11 10:44:47;;;;;;;42.27;24.70;;;;;;;8.66;66.86;101579.81;5129255;28;20449;-44
2021/12/11 10:47:25;;;;;;;41.38;26.35;;;;;;;8.89;66.93;101596.47;5139100;28;20456;-44
2021/12/11 10:49:58;;;;;;;46.20;27.35;;;;;;;9.08;66.72;101595.03;5133667;28;20901;-47
2021/12/11 10:52:33;;;;;;;40.05;24.08;;;;;;;9.26;66.59;101600.63;5134576;28;20457;-44
2021/12/11 10:55:12;;;;;;;34.35;22.80;;;;;;;9.37;66.67;101593.53;5127560;28;20418;-45
2021/12/11 10:57:45;;;;;;;40.40;23.00;;;;;;;9.46;66.69;101592.78;5132640;28;20414;-43
2021/12/11 11:00:29;;;;;;;34.83;21.67;;;;;;;9.51;66.61;101595.06;5133704;28;20459;-43
2021/12/11 11:03:06;;;;;;;34.05;21.40;;;;;;;9.03;66.43;101518.97;5129589;28;20443;-42
2021/12/11 11:05:39;;;;;;;32.50;21.10;;;;;;;9.55;66.57;101596.50;5132861;28;20424;-45
2021/12/11 11:08:13;;;;;;;33.15;21.65;;;;;;;9.52;66.62;101599.38;5134201;28;20506;-42
2021/12/11 11:10:51;;;;;;;36.88;22.25;;;;;;;9.48;66.55;101605.88;5132431;28;20542;-43
2021/12/11 11:13:25;;;;;;;36.13;21.27;;;;;;;9.46;66.46;101602.50;5126232;28;20423;-44
2021/12/11 11:15:59;;;;;;;34.65;21.85;;;;;;;9.46;66.32;101602.50;5132462;28;20868;-42
2021/12/11 11:18:33;;;;;;;37.37;22.37;;;;;;;9.45;66.52;101611.38;5132828;28;20424;-43
2021/12/11 11:21:15;;;;;;;34.45;20.63;;;;;;;9.48;66.22;101605.88;5125516;28;20428;-45
2021/12/11 11:23:49;;;;;;;40.08;20.77;;;;;;;9.50;66.12;101609.19;5128385;28;20428;-43
2021/12/11 11:26:31;;;;;;;39.83;19.63;;;;;;;9.51;66.07;101618.81;5142027;28;20500;-42
2021/12/11 11:29:09;;;;;;;31.67;17.80;;;;;;;9.54;65.94;101621.19;5124873;28;20528;-50
2021/12/11 11:31:44;;;;;;;36.47;20.63;;;;;;;9.57;65.89;101625.34;5130974;28;21047;-43
2021/12/11 11:34:22;;;;;;;36.63;19.02;;;;;;;9.59;65.78;101620.81;5129648;28;20427;-43
2021/12/11 11:36:57;;;;;;;33.83;20.10;;;;;;;9.57;65.81;101617.44;5131709;28;20436;-43
2021/12/11 11:39:29;;;;;;;30.02;16.50;;;;;;;9.60;65.55;101615.44;5132799;28;20551;-44
2021/12/11 11:42:06;;;;;;;37.17;18.98;;;;;;;9.60;65.58;101614.56;5133158;28;20409;-43
2021/12/11 11:44:43;;;;;;;38.63;17.50;;;;;;;9.38;65.55;101583.81;5128681;28;20770;-44
2021/12/11 11:47:19;;;;;;;28.55;16.85;;;;;;;9.65;65.54;101630.84;5134186;28;21109;-43
2021/12/11 11:49:58;;;;;;;32.75;15.85;;;;;;;9.67;65.42;101635.06;5131351;28;20896;-42
2021/12/11 11:52:32;;;;;;;24.80;12.97;;;;;;;9.67;65.23;101637.69;5136209;28;20806;-42
2021/12/11 11:55:09;;;;;;;26.00;12.85;;;;;;;9.63;65.19;101644.19;5132708;28;20408;-47
2021/12/11 11:57:47;;;;;;;30.40;12.88;;;;;;;9.61;65.22;101635.56;5124006;28;20490;-43
2021/12/11 12:00:30;;;;;;;28.30;12.90;;;;;;;9.58;65.24;101638.44;5131663;28;20507;-42
2021/12/11 12:03:03;;;;;;;29.02;12.85;;;;;;;9.59;65.08;101640.09;5132662;28;20529;-43